Fort Buchanan, PR

6:33 AM AST on July 26, 2016 (GMT -0400)
Reparto Metropolitano | | Change Station

Elev 36 ft 18.40 °N, 66.08 °W | Updated 19 seconds ago

Light Thunderstorms and Rain
Light Thunderstorm Rain Mist
80.2 °F
Feels Like 86 °F
N
0.0
Wind Variable Wind from WNW
Gusts 0.0 mph

Today
High -- | Low -- °F
--% Chance of Precip.
Yesterday
High -- | Low -- °F
Precip. -- in
Pressure 29.98 in
Visibility 6.0 miles
Clouds Mostly Cloudy 2200 ft
Overcast 5000 ft
Heat Index 86 °F
Dew Point 76 °F
Humidity 88%
Rainfall 0.30 in
Snow Depth Not available.
6:00 AM 7:01 PM
Waning Gibbous, 56% visible
SPECI TJSJ 261008Z 00000KT 6SM -TSRA BR BKN022CB OVC050 26/26 A2998 RMK AO2 OCNL LTGICCG NE TS NE MOV NW VIS LWR W P0025 $
Pressure 29.98 in
Visibility 6.0 miles
Clouds Mostly Cloudy 2200 ft
Overcast 5000 ft
Heat Index 86 °F
Dew Point 76 °F
Humidity 88%
Rainfall 0.30 in
Snow Depth Not available.
6:00 AM 7:01 PM
Waning Gibbous, 56% visible
SPECI TJSJ 261008Z 00000KT 6SM -TSRA BR BKN022CB OVC050 26/26 A2998 RMK AO2 OCNL LTGICCG NE TS NE MOV NW VIS LWR W P0025 $

10-Day Weather Forecast

Almanac

Astronomy

Jul. 26, 2016 Rise Set
Actual Time
Civil Twilight
Nautical Twilight
Astronomical Twilight
Moon
Length of Visible Light
Length of Day
Tomorrow will be .
, % of the Moon is Illuminated

Today's Extremes

State Highs State Lows

Community

WunderPhotos

Upload Photos

1,927,557 photos uploaded!

WunderBlog® & News

Nearby

Air Quality

  Air Quality AQ Index Pollutant
Not available.

Snow Depth

Station Depth Elevation

Earthquake Activity

City Distance Mag. Time & Date
Minimum magnitude displayed is 2.5.

Coastal Water Temperatures

Place Temperature

Stations

Nearby Weather Stations

Station Location Temp. Windchill Dew Point Humidity Wind Precip. Elev Updated Type
                   

Watches & Warnings

There are currently no watches in effect.